createdAt,value
2022-09-26T00:00:48.681Z,100.00
2022-09-26T00:01:51.419Z,100.00
2022-09-26T00:02:53.953Z,100.00
2022-09-26T00:03:56.458Z,100.00
2022-09-26T00:04:58.937Z,100.00
2022-09-26T00:06:01.375Z,100.00
2022-09-26T00:07:03.807Z,100.00
2022-09-26T00:08:06.257Z,100.00
2022-09-26T00:09:08.868Z,100.00
2022-09-26T00:10:11.776Z,100.00
2022-09-26T00:11:14.229Z,100.00
2022-09-26T00:12:16.644Z,100.00
2022-09-26T00:13:19.081Z,100.00
2022-09-26T00:14:21.518Z,100.00
2022-09-26T00:15:23.997Z,100.00
2022-09-26T00:16:26.898Z,100.00
2022-09-26T00:17:29.392Z,100.00
2022-09-26T00:18:31.845Z,100.00
2022-09-26T00:19:34.278Z,100.00
2022-09-26T00:20:36.955Z,100.00
2022-09-26T00:21:39.391Z,100.00
2022-09-26T00:22:41.826Z,100.00
2022-09-26T00:23:44.263Z,100.00
2022-09-26T00:24:46.701Z,100.00
2022-09-26T00:25:49.167Z,100.00
2022-09-26T00:26:51.707Z,100.00
2022-09-26T00:27:54.144Z,100.00
2022-09-26T00:28:56.576Z,100.00
2022-09-26T00:29:59.029Z,100.00
2022-09-26T00:31:01.698Z,100.00
2022-09-26T00:32:04.446Z,100.00
2022-09-26T00:33:06.887Z,100.00
2022-09-26T00:34:09.319Z,100.00
2022-09-26T00:35:11.952Z,100.00
2022-09-26T00:36:14.836Z,100.00
2022-09-26T00:37:17.315Z,100.00
2022-09-26T00:38:19.788Z,100.00
2022-09-26T00:39:22.235Z,100.00
2022-09-26T00:40:24.944Z,100.00
2022-09-26T00:41:27.466Z,100.00
2022-09-26T00:42:29.895Z,100.00
2022-09-26T00:43:32.333Z,100.00
2022-09-26T00:44:34.762Z,100.00
2022-09-26T00:45:37.228Z,100.00
2022-09-26T00:46:40.004Z,100.00
2022-09-26T00:47:42.476Z,100.00
2022-09-26T00:48:44.940Z,100.00
2022-09-26T00:49:47.407Z,100.00
2022-09-26T00:50:50.100Z,100.00
2022-09-26T00:51:52.578Z,100.00
2022-09-26T00:52:55.014Z,100.00
2022-09-26T00:53:57.469Z,100.00
2022-09-26T00:54:59.915Z,100.00
2022-09-26T00:56:02.445Z,100.00
2022-09-26T00:57:04.907Z,100.00
2022-09-26T00:58:07.343Z,100.00
2022-09-26T00:59:09.796Z,100.00
2022-09-26T01:00:12.533Z,100.00
2022-09-26T01:01:15.118Z,100.00
2022-09-26T01:02:18.019Z,100.00
2022-09-26T01:03:20.575Z,100.00
2022-09-26T01:04:23.005Z,100.00
2022-09-26T01:05:25.480Z,100.00
2022-09-26T01:06:27.947Z,100.00
2022-09-26T01:07:30.407Z,100.00
2022-09-26T01:08:32.857Z,100.00
2022-09-26T01:09:35.321Z,100.00
2022-09-26T01:10:37.963Z,100.00
2022-09-26T01:11:40.420Z,100.00
2022-09-26T01:12:42.903Z,100.00
2022-09-26T01:13:45.399Z,100.00
2022-09-26T01:14:47.870Z,100.00
2022-09-26T01:15:50.329Z,100.00
2022-09-26T01:16:53.140Z,100.00
2022-09-26T01:17:55.711Z,100.00
2022-09-26T01:18:58.165Z,100.00
2022-09-26T01:20:00.603Z,100.00
2022-09-26T01:21:03.142Z,100.00
2022-09-26T01:22:05.591Z,100.00
2022-09-26T01:23:08.064Z,100.00
2022-09-26T01:24:10.497Z,100.00
2022-09-26T01:25:12.936Z,100.00
2022-09-26T01:26:15.570Z,100.00
2022-09-26T01:27:18.008Z,100.00
2022-09-26T01:28:20.474Z,100.00
2022-09-26T01:29:22.917Z,100.00
2022-09-26T01:30:25.705Z,100.00
2022-09-26T01:31:28.353Z,100.00
2022-09-26T01:32:30.803Z,100.00
2022-09-26T01:33:33.266Z,100.00
2022-09-26T01:34:35.727Z,100.00
2022-09-26T01:35:38.166Z,100.00
2022-09-26T01:36:40.715Z,100.00
2022-09-26T01:37:43.156Z,100.00
2022-09-26T01:38:45.632Z,100.00
2022-09-26T01:39:48.070Z,100.00
2022-09-26T01:40:50.865Z,100.00
2022-09-26T01:41:53.456Z,100.00
2022-09-26T01:42:55.907Z,100.00
2022-09-26T01:43:58.398Z,100.00
2022-09-26T01:45:00.844Z,100.00
2022-09-26T01:46:03.598Z,100.00
2022-09-26T01:47:06.272Z,100.00
2022-09-26T01:48:08.722Z,100.00
2022-09-26T01:49:11.467Z,100.00
2022-09-26T01:50:14.472Z,100.00
2022-09-26T01:51:16.947Z,100.00
2022-09-26T01:52:19.394Z,100.00
2022-09-26T01:53:21.877Z,100.00
2022-09-26T01:54:24.472Z,100.00
2022-09-26T01:55:26.967Z,100.00
2022-09-26T01:56:29.623Z,100.00
2022-09-26T01:57:32.064Z,100.00
2022-09-26T01:58:34.521Z,100.00
2022-09-26T01:59:37.013Z,100.00
2022-09-26T02:00:39.654Z,100.00
2022-09-26T02:01:42.415Z,100.00
2022-09-26T02:02:45.145Z,100.00
2022-09-26T02:03:47.710Z,100.00
2022-09-26T02:04:50.199Z,100.00
2022-09-26T02:05:52.724Z,100.00
2022-09-26T02:06:55.359Z,100.00
2022-09-26T02:07:57.801Z,100.00
2022-09-26T02:09:00.242Z,100.00
2022-09-26T02:10:02.816Z,100.00
2022-09-26T02:11:05.257Z,100.00
2022-09-26T02:12:07.697Z,100.00
2022-09-26T02:13:10.548Z,100.00
2022-09-26T02:14:12.994Z,100.00
2022-09-26T02:15:15.454Z,100.00
2022-09-26T02:16:17.952Z,100.00
2022-09-26T02:17:20.460Z,100.00
2022-09-26T02:18:22.902Z,100.00
2022-09-26T02:19:25.344Z,100.00
2022-09-26T02:20:27.938Z,100.00
2022-09-26T02:21:30.479Z,100.00
2022-09-26T02:22:32.967Z,100.00
2022-09-26T02:23:35.420Z,100.00
2022-09-26T02:24:37.844Z,100.00
2022-09-26T02:25:40.314Z,100.00
2022-09-26T02:26:43.062Z,100.00
2022-09-26T02:27:45.908Z,100.00
2022-09-26T02:28:48.374Z,100.00
2022-09-26T02:29:51.117Z,100.00
2022-09-26T02:30:53.790Z,100.00
2022-09-26T02:31:56.349Z,100.00
2022-09-26T02:32:59.031Z,100.00
2022-09-26T02:34:01.531Z,100.00
2022-09-26T02:35:04.081Z,100.00
2022-09-26T02:36:07.066Z,100.00
2022-09-26T02:37:09.504Z,100.00
2022-09-26T02:38:11.945Z,100.00
2022-09-26T02:39:14.436Z,100.00
2022-09-26T02:40:17.468Z,100.00
2022-09-26T02:41:20.457Z,100.00
2022-09-26T02:42:22.953Z,100.00
2022-09-26T02:43:25.393Z,100.00
2022-09-26T02:44:27.841Z,100.00
2022-09-26T02:45:30.311Z,100.00
2022-09-26T02:46:33.223Z,100.00
2022-09-26T02:47:35.663Z,100.00
2022-09-26T02:48:38.105Z,100.00
2022-09-26T02:49:40.554Z,100.00
2022-09-26T02:50:43.200Z,100.00
2022-09-26T02:51:45.724Z,100.00
2022-09-26T02:52:48.165Z,100.00
2022-09-26T02:53:50.620Z,100.00
2022-09-26T02:54:53.071Z,100.00
2022-09-26T02:55:55.613Z,100.00
2022-09-26T02:56:58.286Z,100.00
2022-09-26T02:58:00.725Z,100.00
2022-09-26T02:59:03.163Z,100.00
2022-09-26T03:00:05.711Z,100.00
2022-09-26T03:01:08.267Z,100.00
2022-09-26T03:02:11.114Z,100.00
2022-09-26T03:03:13.558Z,100.00
2022-09-26T03:04:16.015Z,100.00
2022-09-26T03:05:18.545Z,100.00
2022-09-26T03:06:21.396Z,100.00
2022-09-26T03:07:23.921Z,100.00
2022-09-26T03:08:26.366Z,100.00
2022-09-26T03:09:28.820Z,100.00
2022-09-26T03:10:31.457Z,100.00
2022-09-26T03:11:33.923Z,100.00
2022-09-26T03:12:36.388Z,100.00
2022-09-26T03:13:38.824Z,100.00
2022-09-26T03:14:41.260Z,100.00
2022-09-26T03:15:43.700Z,100.00
2022-09-26T03:16:46.298Z,100.00
2022-09-26T03:17:49.037Z,100.00
2022-09-26T03:18:51.459Z,100.00
2022-09-26T03:19:53.910Z,100.00
2022-09-26T03:20:56.593Z,100.00
2022-09-26T03:21:59.038Z,100.00
2022-09-26T03:23:01.509Z,100.00
2022-09-26T03:24:03.951Z,100.00
2022-09-26T03:25:06.411Z,100.00
2022-09-26T03:26:09.363Z,100.00
2022-09-26T03:27:11.977Z,100.00
2022-09-26T03:28:14.448Z,100.00
2022-09-26T03:29:16.910Z,100.00
2022-09-26T03:30:19.791Z,100.00
2022-09-26T03:31:22.343Z,100.00
2022-09-26T03:32:25.083Z,100.00
2022-09-26T03:33:27.643Z,100.00
2022-09-26T03:34:30.422Z,100.00
2022-09-26T03:35:32.862Z,100.00
2022-09-26T03:36:35.414Z,100.00
2022-09-26T03:37:37.897Z,100.00
2022-09-26T03:38:40.723Z,100.00
2022-09-26T03:39:43.202Z,100.00
2022-09-26T03:40:45.825Z,100.00
2022-09-26T03:41:48.500Z,100.00
2022-09-26T03:42:50.926Z,100.00
2022-09-26T03:43:53.394Z,100.00
2022-09-26T03:44:55.826Z,100.00
2022-09-26T03:45:58.315Z,100.00
2022-09-26T03:47:00.909Z,100.00
2022-09-26T03:48:03.348Z,100.00
2022-09-26T03:49:05.873Z,100.00
2022-09-26T03:50:08.864Z,100.00
2022-09-26T03:51:11.344Z,100.00
2022-09-26T03:52:13.903Z,100.00
2022-09-26T03:53:16.384Z,100.00
2022-09-26T03:54:18.854Z,100.00
2022-09-26T03:55:21.291Z,100.00
2022-09-26T03:56:23.950Z,100.00
2022-09-26T03:57:26.394Z,100.00
2022-09-26T03:58:28.832Z,100.00
2022-09-26T03:59:31.340Z,100.00
2022-09-26T04:00:34.037Z,100.00
2022-09-26T04:01:36.505Z,100.00
2022-09-26T04:02:39.016Z,100.00
2022-09-26T04:03:45.142Z,100.00
2022-09-26T04:04:46.179Z,100.00
2022-09-26T04:05:48.612Z,100.00
2022-09-26T04:06:51.267Z,100.00
2022-09-26T04:07:53.692Z,100.00
2022-09-26T04:08:56.131Z,100.00
2022-09-26T04:09:58.605Z,100.00
2022-09-26T04:11:01.345Z,100.00
2022-09-26T04:12:04.107Z,100.00
2022-09-26T04:13:06.758Z,100.00
2022-09-26T04:14:09.191Z,100.00
2022-09-26T04:15:11.685Z,100.00
2022-09-26T04:16:14.787Z,100.00
2022-09-26T04:17:17.379Z,100.00
2022-09-26T04:18:19.813Z,100.00
2022-09-26T04:19:22.259Z,100.00
2022-09-26T04:20:24.748Z,100.00
2022-09-26T04:21:27.509Z,100.00
2022-09-26T04:22:30.045Z,100.00
2022-09-26T04:23:32.490Z,100.00
2022-09-26T04:24:35.000Z,100.00
2022-09-26T04:25:37.542Z,100.00
2022-09-26T04:26:40.076Z,100.00
2022-09-26T04:27:42.549Z,100.00
2022-09-26T04:28:44.997Z,100.00
2022-09-26T04:29:47.486Z,100.00
2022-09-26T04:30:49.966Z,100.00
2022-09-26T04:31:52.470Z,100.00
2022-09-26T04:32:54.948Z,100.00
2022-09-26T04:33:57.386Z,100.00
2022-09-26T04:34:59.823Z,100.00
2022-09-26T04:36:02.289Z,100.00
2022-09-26T04:37:04.727Z,100.00
2022-09-26T04:38:07.160Z,100.00
2022-09-26T04:39:09.702Z,100.00
2022-09-26T04:40:12.839Z,100.00
2022-09-26T04:41:15.374Z,100.00
2022-09-26T04:42:17.813Z,100.00
2022-09-26T04:43:20.256Z,100.00
2022-09-26T04:44:22.695Z,100.00
2022-09-26T04:45:25.206Z,100.00
2022-09-26T04:46:30.817Z,100.00
2022-09-26T04:47:32.225Z,100.00
2022-09-26T04:48:34.663Z,100.00
2022-09-26T04:49:37.108Z,100.00
2022-09-26T04:50:39.653Z,100.00
2022-09-26T04:51:42.112Z,100.00
2022-09-26T04:52:44.570Z,100.00
2022-09-26T04:53:47.052Z,100.00
2022-09-26T04:54:49.482Z,100.00
2022-09-26T04:55:51.943Z,100.00
2022-09-26T04:56:54.508Z,100.00
2022-09-26T04:57:57.044Z,100.00
2022-09-26T04:58:59.483Z,100.00
2022-09-26T05:00:01.921Z,100.00
2022-09-26T05:01:04.504Z,100.00
2022-09-26T05:02:07.368Z,100.00
2022-09-26T05:03:09.820Z,100.00
2022-09-26T05:04:12.311Z,100.00
2022-09-26T05:05:14.751Z,100.00
2022-09-26T05:06:17.888Z,100.00
2022-09-26T05:07:20.359Z,100.00
2022-09-26T05:08:22.800Z,100.00
2022-09-26T05:09:25.236Z,100.00
2022-09-26T05:10:27.967Z,100.00
2022-09-26T05:11:30.423Z,100.00
2022-09-26T05:12:32.892Z,100.00
2022-09-26T05:13:35.330Z,100.00
2022-09-26T05:14:37.775Z,100.00
2022-09-26T05:15:40.218Z,100.00
2022-09-26T05:16:43.161Z,100.00
2022-09-26T05:17:45.758Z,100.00
2022-09-26T05:18:48.189Z,100.00
2022-09-26T05:19:50.627Z,100.00
2022-09-26T05:20:53.366Z,100.00
2022-09-26T05:21:56.079Z,100.00
2022-09-26T05:22:58.548Z,100.00
2022-09-26T05:24:00.985Z,100.00
2022-09-26T05:25:03.432Z,100.00
2022-09-26T05:27:16.219Z,100.00
2022-09-26T05:28:18.710Z,100.00
2022-09-26T05:29:21.171Z,100.00
2022-09-26T05:30:23.924Z,100.00
2022-09-26T05:31:26.434Z,100.00
2022-09-26T05:32:29.260Z,100.00
2022-09-26T05:33:31.875Z,100.00
2022-09-26T05:34:34.545Z,100.00
2022-09-26T05:35:36.987Z,100.00
2022-09-26T05:36:39.629Z,100.00
2022-09-26T05:37:42.094Z,100.00
2022-09-26T05:38:44.581Z,100.00
2022-09-26T05:39:47.036Z,100.00
2022-09-26T05:40:49.876Z,100.00
2022-09-26T05:41:52.975Z,100.00
2022-09-26T05:42:55.437Z,100.00
2022-09-26T05:43:57.947Z,100.00
2022-09-26T05:45:00.391Z,100.00
2022-09-26T05:46:03.039Z,100.00
2022-09-26T05:47:05.531Z,100.00
2022-09-26T05:48:08.026Z,100.00
2022-09-26T05:49:10.697Z,100.00
2022-09-26T05:50:13.653Z,100.00
2022-09-26T05:51:16.102Z,100.00
2022-09-26T05:52:18.541Z,100.00
2022-09-26T05:53:20.985Z,100.00
2022-09-26T05:54:23.475Z,100.00
2022-09-26T05:55:25.918Z,100.00
2022-09-26T05:56:28.467Z,100.00
2022-09-26T05:57:30.945Z,100.00
2022-09-26T05:58:33.387Z,100.00
2022-09-26T05:59:36.004Z,100.00
2022-09-26T06:00:38.911Z,100.00
2022-09-26T06:01:41.858Z,100.00
2022-09-26T06:02:44.621Z,100.00
2022-09-26T06:03:47.199Z,100.00
2022-09-26T06:04:49.891Z,100.00
2022-09-26T06:05:52.365Z,100.00
2022-09-26T06:06:55.446Z,100.00
2022-09-26T06:07:57.913Z,100.00
2022-09-26T06:09:00.360Z,100.00
2022-09-26T06:10:02.940Z,100.00
2022-09-26T06:11:05.409Z,100.00
2022-09-26T06:12:07.854Z,100.00
2022-09-26T06:13:10.312Z,100.00
2022-09-26T06:14:12.760Z,100.00
2022-09-26T06:15:15.387Z,100.00
2022-09-26T06:16:18.042Z,100.00
2022-09-26T06:17:20.695Z,100.00
2022-09-26T06:18:23.149Z,100.00
2022-09-26T06:19:25.592Z,100.00
2022-09-26T06:20:28.448Z,100.00
2022-09-26T06:21:31.095Z,100.00
2022-09-26T06:22:33.666Z,100.00
2022-09-26T06:23:36.113Z,100.00
2022-09-26T06:24:38.553Z,100.00
2022-09-26T06:25:41.027Z,100.00
2022-09-26T06:26:43.678Z,100.00
2022-09-26T06:27:46.376Z,100.00
2022-09-26T06:28:48.848Z,100.00
2022-09-26T06:29:51.287Z,100.00
2022-09-26T06:30:54.228Z,100.00
2022-09-26T06:31:56.765Z,100.00
2022-09-26T06:32:59.406Z,100.00
2022-09-26T06:34:01.882Z,100.00
2022-09-26T06:35:04.323Z,100.00
2022-09-26T06:36:07.218Z,100.00
2022-09-26T06:37:09.681Z,100.00
2022-09-26T06:38:12.210Z,100.00
2022-09-26T06:39:15.082Z,100.00
2022-09-26T06:40:18.187Z,100.00
2022-09-26T06:41:20.755Z,100.00
2022-09-26T06:42:23.347Z,100.00
2022-09-26T06:43:25.789Z,100.00
2022-09-26T06:44:28.255Z,100.00
2022-09-26T06:45:30.702Z,100.00
2022-09-26T06:46:33.641Z,100.00
2022-09-26T06:47:36.231Z,100.00
2022-09-26T06:48:38.693Z,100.00
2022-09-26T06:49:41.133Z,100.00
2022-09-26T06:50:43.687Z,100.00
2022-09-26T06:51:46.278Z,100.00
2022-09-26T06:52:48.718Z,100.00
2022-09-26T06:53:52.988Z,100.00
2022-09-26T06:54:55.429Z,99.98
2022-09-26T06:55:57.925Z,100.00
2022-09-26T06:57:00.500Z,99.96
2022-09-26T06:58:02.950Z,100.00
2022-09-26T06:59:05.411Z,97.00
2022-09-26T07:00:08.271Z,100.00
2022-09-26T07:01:11.113Z,100.00
2022-09-26T07:02:14.016Z,100.00
2022-09-26T07:03:16.611Z,99.40
2022-09-26T07:04:19.059Z,100.00
2022-09-26T07:05:21.558Z,100.00
2022-09-26T07:06:24.211Z,98.51
2022-09-26T07:07:26.691Z,96.31
2022-09-26T07:08:50.417Z,97.79
2022-09-26T07:09:33.491Z,97.91
2022-09-26T07:10:36.144Z,98.09
2022-09-26T07:12:09.402Z,99.75
2022-09-26T07:12:42.982Z,95.67
2022-09-26T07:13:45.474Z,95.41
2022-09-26T07:14:52.826Z,98.28
2022-09-26T07:15:52.298Z,97.31
2022-09-26T07:16:55.323Z,99.42
2022-09-26T07:17:57.826Z,97.48
2022-09-26T07:19:00.263Z,95.46
2022-09-26T07:20:03.009Z,93.44
2022-09-26T07:21:05.654Z,94.12
2022-09-26T07:22:08.095Z,94.28
2022-09-26T07:23:10.588Z,94.36
2022-09-26T07:24:13.049Z,90.75
2022-09-26T07:25:15.537Z,91.03
2022-09-26T07:26:18.606Z,94.75
2022-09-26T07:27:21.038Z,93.76
2022-09-26T07:28:23.520Z,93.22
2022-09-26T07:29:25.964Z,90.65
2022-09-26T07:30:28.982Z,90.94
2022-09-26T07:31:31.507Z,94.01
2022-09-26T07:32:34.000Z,90.12
2022-09-26T07:33:36.509Z,89.33
2022-09-26T07:34:38.946Z,93.89
2022-09-26T07:35:41.382Z,91.88
2022-09-26T07:36:44.124Z,89.22
2022-09-26T07:37:46.564Z,86.94
2022-09-26T07:38:49.080Z,89.90
2022-09-26T07:39:54.721Z,87.83
2022-09-26T07:40:56.079Z,90.49
2022-09-26T07:41:58.957Z,89.23
2022-09-26T07:43:19.101Z,87.05
2022-09-26T07:45:26.133Z,85.66
2022-09-26T07:46:15.289Z,86.94
2022-09-26T07:47:17.849Z,86.03
2022-09-26T07:48:20.302Z,88.00
2022-09-26T07:49:22.795Z,86.96
2022-09-26T07:50:25.329Z,85.54
2022-09-26T07:51:27.772Z,82.70
2022-09-26T07:52:30.200Z,84.49
2022-09-26T07:53:32.636Z,85.72
2022-09-26T07:54:35.164Z,86.38
2022-09-26T07:55:37.649Z,85.02
2022-09-26T07:56:40.297Z,85.06
2022-09-26T07:57:42.790Z,87.58
2022-09-26T07:58:45.233Z,89.19
2022-09-26T07:59:47.699Z,88.50
2022-09-26T08:00:50.438Z,88.01
2022-09-26T08:01:52.984Z,90.34
2022-09-26T08:02:55.823Z,89.33
2022-09-26T08:03:58.424Z,89.27
2022-09-26T08:05:01.383Z,90.51
2022-09-26T08:06:04.378Z,92.66
2022-09-26T08:07:06.818Z,90.92
2022-09-26T08:08:09.250Z,91.34
2022-09-26T08:09:11.735Z,92.27
2022-09-26T08:10:15.106Z,90.78
2022-09-26T08:11:17.550Z,89.55
2022-09-26T08:12:20.164Z,91.11
2022-09-26T08:13:22.720Z,91.98
2022-09-26T08:14:25.164Z,91.92
2022-09-26T08:15:27.641Z,88.20
2022-09-26T08:16:30.450Z,90.02
2022-09-26T08:17:33.117Z,89.64
2022-09-26T08:18:35.579Z,88.18
2022-09-26T08:19:38.040Z,89.18
2022-09-26T08:20:40.846Z,85.31
2022-09-26T08:21:43.796Z,86.96
2022-09-26T08:22:46.281Z,87.07
2022-09-26T08:23:48.757Z,87.66
2022-09-26T08:24:51.202Z,88.47
2022-09-26T08:25:53.688Z,91.24
2022-09-26T08:26:56.232Z,89.84
2022-09-26T08:27:58.699Z,88.72
2022-09-26T08:29:01.210Z,87.02
2022-09-26T08:30:04.564Z,87.86
2022-09-26T08:31:07.082Z,88.60
2022-09-26T08:32:09.872Z,88.55
2022-09-26T08:33:12.328Z,90.30
2022-09-26T08:34:14.932Z,89.06
2022-09-26T08:35:17.608Z,91.16
2022-09-26T08:36:20.289Z,91.07
2022-09-26T08:37:22.745Z,90.52
2022-09-26T08:38:25.188Z,89.45
2022-09-26T08:39:32.524Z,89.86
2022-09-26T08:40:32.273Z,92.04
2022-09-26T08:41:35.187Z,93.38
2022-09-26T08:42:37.823Z,93.96
2022-09-26T08:43:40.264Z,95.84
2022-09-26T08:44:42.707Z,94.51
2022-09-26T08:45:47.959Z,93.66
2022-09-26T08:46:50.151Z,95.69
2022-09-26T08:47:52.759Z,95.08
2022-09-26T08:48:55.372Z,94.49
2022-09-26T08:49:57.830Z,95.25
2022-09-26T08:51:00.685Z,96.99
2022-09-26T08:52:03.176Z,96.82
2022-09-26T08:53:05.641Z,95.42
2022-09-26T08:54:08.086Z,95.47
2022-09-26T08:55:10.637Z,97.21
2022-09-26T08:56:13.376Z,96.08
2022-09-26T08:57:15.841Z,97.04
2022-09-26T08:58:18.296Z,98.47
2022-09-26T08:59:20.770Z,97.63
2022-09-26T09:00:23.811Z,98.99
2022-09-26T09:01:26.314Z,98.93
2022-09-26T09:02:29.059Z,98.92
2022-09-26T09:03:31.739Z,98.22
2022-09-26T09:04:34.202Z,97.23
2022-09-26T09:05:36.663Z,98.80
2022-09-26T09:06:39.514Z,97.26
2022-09-26T09:07:41.992Z,98.95
2022-09-26T09:08:44.432Z,98.66
2022-09-26T09:09:46.967Z,98.23
2022-09-26T09:10:49.856Z,97.36
2022-09-26T09:11:52.323Z,98.28
2022-09-26T09:12:54.802Z,98.45
2022-09-26T09:13:57.236Z,97.49
2022-09-26T09:15:23.433Z,96.68
2022-09-26T09:16:04.161Z,97.74
2022-09-26T09:17:06.689Z,96.83
2022-09-26T09:18:13.402Z,98.07
2022-09-26T09:19:13.600Z,97.88
2022-09-26T09:20:16.345Z,94.39
2022-09-26T09:21:19.100Z,92.02
2022-09-26T09:22:21.655Z,89.74
2022-09-26T09:23:24.136Z,90.69
2022-09-26T09:24:26.577Z,88.37
2022-09-26T09:25:29.420Z,85.68
2022-09-26T09:28:40.810Z,80.59
2022-09-26T09:29:48.866Z,82.36
2022-09-26T09:30:48.001Z,81.35
2022-09-26T09:31:50.728Z,80.31
2022-09-26T09:32:53.362Z,77.26
2022-09-26T09:33:55.849Z,74.90
2022-09-26T09:34:58.277Z,74.67
2022-09-26T09:36:00.719Z,75.87
2022-09-26T09:37:03.159Z,72.91
2022-09-26T09:38:05.607Z,73.53
2022-09-26T09:39:08.172Z,70.54
2022-09-26T09:40:11.021Z,70.97
2022-09-26T09:41:13.595Z,74.09
2022-09-26T09:42:16.034Z,71.93
2022-09-26T09:43:18.490Z,70.65
2022-09-26T09:44:20.964Z,71.21
2022-09-26T09:45:23.413Z,72.92
2022-09-26T09:46:26.148Z,68.56
2022-09-26T09:47:28.817Z,71.92
2022-09-26T09:48:31.323Z,71.39
2022-09-26T09:49:33.789Z,70.58
2022-09-26T09:50:36.551Z,70.04
2022-09-26T09:51:39.576Z,66.44
2022-09-26T09:52:42.452Z,67.04
2022-09-26T09:53:44.902Z,66.76
2022-09-26T09:54:47.386Z,69.94
2022-09-26T09:55:49.840Z,67.42
2022-09-26T09:56:52.537Z,66.25
2022-09-26T09:57:54.991Z,67.34
2022-09-26T09:58:57.434Z,67.18
2022-09-26T10:00:02.053Z,65.51
2022-09-26T10:01:04.279Z,66.92
2022-09-26T10:02:06.732Z,63.24
2022-09-26T10:03:09.310Z,64.33
2022-09-26T10:04:12.199Z,64.83
2022-09-26T10:05:14.884Z,68.49
2022-09-26T10:06:44.106Z,68.44
2022-09-26T10:07:22.269Z,67.69
2022-09-26T10:08:24.718Z,66.88
2022-09-26T10:09:39.354Z,68.20
2022-09-26T10:10:31.884Z,69.23
2022-09-26T10:11:34.365Z,69.12
2022-09-26T10:12:36.823Z,69.86
2022-09-26T10:13:39.267Z,69.49
2022-09-26T10:14:41.710Z,68.39
2022-09-26T10:15:44.273Z,66.78
2022-09-26T10:16:46.966Z,67.79
2022-09-26T10:18:19.602Z,66.91
2022-09-26T10:18:53.794Z,66.55
2022-09-26T10:19:56.282Z,66.57
2022-09-26T10:20:58.887Z,67.98
2022-09-26T10:22:01.330Z,67.76
2022-09-26T10:23:03.791Z,68.99
2022-09-26T10:24:07.454Z,68.86
2022-09-26T10:25:09.936Z,70.86
2022-09-26T10:26:12.813Z,71.86
2022-09-26T10:27:15.259Z,72.58
2022-09-26T10:28:17.714Z,72.79
2022-09-26T10:29:20.156Z,72.64
2022-09-26T10:30:22.814Z,74.74
2022-09-26T10:31:25.305Z,74.12
2022-09-26T10:32:27.744Z,75.06
2022-09-26T10:33:30.193Z,73.12
2022-09-26T10:34:32.665Z,74.92
2022-09-26T10:35:35.110Z,73.21
2022-09-26T10:36:37.678Z,74.16
2022-09-26T10:37:40.118Z,71.92
2022-09-26T10:38:42.627Z,72.37
2022-09-26T10:39:45.051Z,70.39
2022-09-26T10:40:47.750Z,70.62
2022-09-26T10:41:51.302Z,68.44
2022-09-26T10:42:53.748Z,67.16
2022-09-26T10:43:56.198Z,70.05
2022-09-26T10:44:58.643Z,69.54
2022-09-26T10:46:01.134Z,71.70
2022-09-26T10:47:03.673Z,69.88
2022-09-26T10:48:06.123Z,71.97
2022-09-26T10:49:08.559Z,69.71
2022-09-26T10:50:12.024Z,68.40
2022-09-26T10:51:14.466Z,69.90
2022-09-26T10:52:18.836Z,69.71
2022-09-26T10:53:21.352Z,69.75
2022-09-26T10:54:23.833Z,69.40
2022-09-26T10:55:26.292Z,68.18
2022-09-26T10:56:28.946Z,66.41
2022-09-26T10:57:31.430Z,67.21
2022-09-26T10:58:33.875Z,67.47
2022-09-26T10:59:36.427Z,67.87
2022-09-26T11:00:38.966Z,68.55
2022-09-26T11:01:41.492Z,68.02
2022-09-26T11:02:44.118Z,68.90
2022-09-26T11:03:46.634Z,68.07
2022-09-26T11:04:49.143Z,68.66
2022-09-26T11:05:51.707Z,67.92
2022-09-26T11:06:54.450Z,66.94
2022-09-26T11:07:56.938Z,67.73
2022-09-26T11:08:59.381Z,68.29
2022-09-26T11:10:01.839Z,69.20
2022-09-26T11:11:04.304Z,69.55
2022-09-26T11:12:06.847Z,70.22
2022-09-26T11:13:09.320Z,70.02
2022-09-26T11:14:11.766Z,70.13
2022-09-26T11:15:14.206Z,70.77
2022-09-26T11:16:17.254Z,70.83
2022-09-26T11:17:19.768Z,70.24
2022-09-26T11:18:22.402Z,72.55
2022-09-26T11:19:24.871Z,72.94
2022-09-26T11:20:27.323Z,72.95
2022-09-26T11:21:29.836Z,72.93
2022-09-26T11:22:32.525Z,72.01
2022-09-26T11:23:34.992Z,71.96
2022-09-26T11:24:37.477Z,75.14
2022-09-26T11:25:40.081Z,73.53
2022-09-26T11:26:42.737Z,74.91
2022-09-26T11:27:45.172Z,75.40
2022-09-26T11:28:47.787Z,72.89
2022-09-26T11:29:50.310Z,72.39
2022-09-26T11:30:53.072Z,73.20
2022-09-26T11:32:00.057Z,72.35
2022-09-26T11:33:00.050Z,73.87
2022-09-26T11:34:02.539Z,73.63
2022-09-26T11:35:05.011Z,71.10
2022-09-26T11:36:08.483Z,67.25
2022-09-26T11:37:10.921Z,67.08
2022-09-26T11:38:13.421Z,68.20
2022-09-26T11:39:16.079Z,69.22
2022-09-26T11:40:19.407Z,68.09
2022-09-26T11:41:22.896Z,67.66
2022-09-26T11:42:25.345Z,67.33
2022-09-26T11:43:27.798Z,67.14
2022-09-26T11:44:30.276Z,70.11
2022-09-26T11:45:36.163Z,71.93
2022-09-26T11:46:37.509Z,73.35
2022-09-26T11:47:40.124Z,74.13
2022-09-26T11:48:42.587Z,73.62
2022-09-26T11:49:45.073Z,73.41
2022-09-26T11:50:47.723Z,73.67
2022-09-26T11:51:50.161Z,75.59
2022-09-26T11:52:52.611Z,77.13
2022-09-26T11:53:55.380Z,77.10
2022-09-26T11:54:57.858Z,77.16
2022-09-26T11:56:00.302Z,76.40
2022-09-26T11:57:02.749Z,74.78
2022-09-26T11:58:05.215Z,76.09
2022-09-26T11:59:07.656Z,76.08
2022-09-26T12:00:10.250Z,78.46
2022-09-26T12:01:13.204Z,78.93
2022-09-26T12:02:15.810Z,79.75
2022-09-26T12:03:18.719Z,79.93
2022-09-26T12:04:21.582Z,80.86
2022-09-26T12:05:27.025Z,81.12
2022-09-26T12:06:28.613Z,81.93
2022-09-26T12:07:31.065Z,82.69
2022-09-26T12:08:33.837Z,83.03
2022-09-26T12:09:36.267Z,84.45
2022-09-26T12:10:38.873Z,84.66
2022-09-26T12:11:41.298Z,84.53
2022-09-26T12:12:43.851Z,84.98
2022-09-26T12:13:46.308Z,86.06
2022-09-26T12:14:48.763Z,85.93
2022-09-26T12:15:51.284Z,88.62
2022-09-26T12:16:54.209Z,89.82
2022-09-26T12:17:56.640Z,90.91
2022-09-26T12:18:59.081Z,91.27
2022-09-26T12:20:01.516Z,91.32
2022-09-26T12:21:03.989Z,91.01
2022-09-26T12:22:06.426Z,91.46
2022-09-26T12:23:08.865Z,91.86
2022-09-26T12:24:11.305Z,91.69
2022-09-26T12:25:17.857Z,92.33
2022-09-26T12:26:18.307Z,92.22
2022-09-26T12:27:20.743Z,92.99
2022-09-26T12:28:23.334Z,93.46
2022-09-26T12:29:25.772Z,96.67
2022-09-26T12:30:28.546Z,97.74
2022-09-26T12:31:31.072Z,96.76
2022-09-26T12:32:33.614Z,97.89
2022-09-26T12:33:36.070Z,96.51
2022-09-26T12:34:38.539Z,97.31
2022-09-26T12:35:40.964Z,98.26
2022-09-26T12:36:43.661Z,98.67
2022-09-26T12:37:46.170Z,98.89
2022-09-26T12:38:51.959Z,98.55
2022-09-26T12:39:53.077Z,99.84
2022-09-26T12:40:55.915Z,97.63
2022-09-26T12:41:58.638Z,97.59
2022-09-26T12:43:01.079Z,97.89
2022-09-26T12:44:03.527Z,98.89
2022-09-26T12:45:05.964Z,98.80
2022-09-26T12:46:08.659Z,100.00
2022-09-26T12:48:21.378Z,100.00
2022-09-26T12:49:23.820Z,100.00
2022-09-26T12:50:26.359Z,100.00
2022-09-26T12:51:28.819Z,100.00
2022-09-26T12:52:31.332Z,100.00
2022-09-26T12:53:33.786Z,100.00
2022-09-26T12:54:36.254Z,100.00
2022-09-26T12:55:38.694Z,100.00
2022-09-26T12:56:41.235Z,100.00
2022-09-26T12:57:43.711Z,100.00
2022-09-26T12:58:46.347Z,100.00
2022-09-26T12:59:48.815Z,100.00
2022-09-26T13:00:51.459Z,100.00
2022-09-26T13:01:54.087Z,100.00
2022-09-26T13:02:56.944Z,100.00
2022-09-26T13:03:59.501Z,100.00
2022-09-26T13:05:01.979Z,100.00
2022-09-26T13:06:08.543Z,100.00
2022-09-26T13:07:18.822Z,100.00
2022-09-26T13:08:13.332Z,100.00
2022-09-26T13:09:16.030Z,100.00
2022-09-26T13:10:19.013Z,100.00
2022-09-26T13:11:21.460Z,100.00
2022-09-26T13:12:23.901Z,100.00
2022-09-26T13:13:26.711Z,100.00
2022-09-26T13:14:29.150Z,100.00
2022-09-26T13:15:31.626Z,100.00
2022-09-26T13:16:34.368Z,100.00
2022-09-26T13:17:36.817Z,100.00